This is the latest recevied weather packets stored in our database for station/object EA2MKR. If no packets are shown the sender has not sent any weather packets the latest 10 day(s).
| Time | Temp. | Humidity | Pressure | Rain* | Wind** | Luminosity | Snow |
|---|---|---|---|---|---|---|---|
| 1777483404 | 15.56° C | 85% | 947.7 hPa | 2.29 mm | - | - | - |
| 1777483104 | 15.56° C | 86% | 947.5 hPa | 2.29 mm | - | - | - |
| 1777482881 | 15.56° C | 87% | 947.4 hPa | 2.29 mm | - | - | - |
| 1777482504 | 15° C | 87% | 947.4 hPa | 2.29 mm | - | - | - |
| 1777482204 | 15° C | 86% | 947.3 hPa | 2.29 mm | - | - | - |
| 1777481904 | 15.56° C | 87% | 947.2 hPa | 2.29 mm | - | - | - |
| 1777481604 | 15.56° C | 85% | 947.2 hPa | 2.29 mm | - | - | - |
| 1777481305 | 15.56° C | 85% | 946.9 hPa | 2.03 mm | - | - | - |
| 1777481003 | 15.56° C | 84% | 946.8 hPa | 2.03 mm | - | - | - |
| 1777480775 | 16.67° C | 79% | 947.2 hPa | 1.78 mm | - | - | - |
| 1777480404 | 17.22° C | 79% | 947.3 hPa | 1.52 mm | - | - | - |
| 1777480174 | 17.78° C | 76% | 947.7 hPa | 0.51 mm | - | - | - |
| 1777479875 | 17.78° C | 73% | 947.5 hPa | 0 mm | - | - | - |
| 1777479503 | 18.33° C | 71% | 947.4 hPa | 0 mm | - | - | - |
| 1777479273 | 18.33° C | 72% | 947.2 hPa | 0 mm | - | - | - |
| 1777478903 | 18.33° C | 71% | 947.1 hPa | 0 mm | - | - | - |
| 1777478602 | 18.33° C | 70% | 947.1 hPa | 0 mm | - | - | - |
| 1777478295 | 18.33° C | 71% | 947.1 hPa | 0 mm | - | - | - |
| 1777477996 | 18.33° C | 72% | 947.1 hPa | 0 mm | - | - | - |
| 1777477773 | 18.33° C | 72% | 947.2 hPa | 0 mm | - | - | - |
| 1777477391 | 18.33° C | 73% | 947.1 hPa | 0 mm | - | - | - |
| 1777477086 | 18.33° C | 71% | 947.1 hPa | 0 mm | - | - | - |
| 1777476876 | 18.33° C | 71% | 947.1 hPa | 0 mm | - | - | - |
| 1777476484 | 18.33° C | 71% | 947.1 hPa | 0 mm | - | - | - |
| 1777476184 | 18.33° C | 73% | 947 hPa | 0 mm | - | - | - |
* Rain latest hour (hover to see other rain measurements)
** Current wind speed in m/s (hover to see current wind gust speed)